Weather History for Murray, KY

Change the Weather History Date:

Monday, January 13, 2014

  Actual Average (KPAH) Record (KPAH)
Temperature  
Mean Temperature 45 °F 34 °F  
Max Temperature 51 °F 43 °F 68 °F (1995)
Min Temperature 39 °F 26 °F 0 °F (1977)
Degree Days  
Heating Degree Days 20 31  
Month to date heating degree days 400  
Since 1 July heating degree days 2031  
Cooling Degree Days 0 0  
Month to date cooling degree days 0  
Year to date cooling degree days 0  
Moisture  
Dew Point 44 °F    
Average Humidity 88    
Maximum Humidity 100    
Minimum Humidity 50    
Precipitation  
Precipitation 0.19 in 0.12 in 2.25 in (1971)
Month to date precipitation 1.55  
Year to date precipitation 1.55  
Snow  
Snow 0.00 in 0.00 in 2.10 in (1968)
Month to date snowfall 1.1  
Since 1 July snowfall 3.4  
Snow Depth -    
Sea Level Pressure  
Sea Level Pressure 29.82 in    
Wind  
Wind Speed 12 mph (SW)    
Max Wind Speed 20 mph    
Max Gust Speed 28 mph    
Visibility 6 miles    
Events      
T = Trace of Precipitation, MM = Missing Value Source: NWS Daily Summary

Daily Weather History Graph

Daily Weather History Graph

Search for Another Location

Airport:

Trip Planner

Search our weather history database for the weather conditions in past years. The results will help you decide how hot, cold, wet, or windy it might be!

Date:

Astronomy

Jan. 13, 2014 Rise Set
Actual Time 7:05 AM CST 4:59 PM CST
Civil Twilight 6:37 AM CST 5:27 PM CST
Nautical Twilight 6:05 AM CST 5:59 PM CST
Astronomical Twilight 5:34 AM CST 6:30 PM CST
Moon 3:13 PM CST (1/13) 4:54 AM CST (1/13)
Length of Visible Light 10h 50m
Length of Day
9h 53m
Waxing Gibbous, 95% of the Moon is Illuminated
Jan 13
Waxing Gibbous
Jan 15
Full
Jan 23
Last Quarter
Jan 30
New
Feb 6
First Quarter

Hourly Weather History & Observations

Time (CST) Temp. Windchill Dew Point Humidity Pressure Visibility Wind Dir Wind Speed Gust Speed Precip Events Conditions
12:15 AM 50.0 °F - 32.0 °F 50% 29.88 in 10.0 mi South 12.7 mph 19.6 mph N/A   Clear
12:35 AM 50.0 °F - 32.0 °F 50% 29.88 in 10.0 mi South 17.3 mph 21.9 mph N/A   Clear
12:55 AM 50.0 °F - 32.0 °F 50% 29.87 in 10.0 mi South 19.6 mph 26.5 mph N/A   Clear
1:15 AM 50.0 °F - 32.0 °F 50% 29.87 in 10.0 mi South 12.7 mph 19.6 mph N/A   Clear
1:35 AM 50.0 °F - 32.0 °F 50% 29.86 in 10.0 mi South 12.7 mph 24.2 mph N/A   Clear
1:55 AM 50.0 °F - 32.0 °F 50% 29.86 in 10.0 mi SSW 12.7 mph 21.9 mph N/A   Partly Cloudy
2:15 AM 51.8 °F - 33.8 °F 50% 29.86 in 10.0 mi SSW 12.7 mph 20.7 mph N/A   Scattered Clouds
2:35 AM 51.8 °F - 35.6 °F 54% 29.86 in 10.0 mi South 11.5 mph 23.0 mph N/A   Overcast
2:55 AM 50.0 °F - 37.4 °F 62% 29.86 in 5.0 mi South 12.7 mph 19.6 mph N/A   Overcast
3:15 AM 48.2 °F - 41.0 °F 76% 29.89 in 6.0 mi SSW 11.5 mph 20.7 mph 0.03 in   Overcast
3:35 AM 48.2 °F - 41.0 °F 76% 29.87 in 6.0 mi South 15.0 mph 27.6 mph 0.03 in   Overcast
3:55 AM 46.4 °F 41.1 °F 41.0 °F 81% 29.87 in 7.0 mi SSW 11.5 mph 21.9 mph 0.04 in   Overcast
4:15 AM 46.4 °F 40.1 °F 41.0 °F 81% 29.84 in 8.0 mi South 15.0 mph 24.2 mph 0.02 in   Mostly Cloudy
4:35 AM 46.4 °F 40.1 °F 41.0 °F 81% 29.83 in 10.0 mi South 15.0 mph 24.2 mph 0.02 in   Overcast
4:55 AM 48.2 °F - 41.0 °F 76% 29.83 in 10.0 mi South 15.0 mph 24.2 mph 0.02 in   Mostly Cloudy
5:15 AM 48.2 °F - 41.0 °F 76% 29.82 in 10.0 mi South 15.0 mph 23.0 mph N/A   Mostly Cloudy
5:35 AM 48.2 °F - 41.0 °F 76% 29.83 in 10.0 mi South 13.8 mph 21.9 mph N/A   Scattered Clouds
5:55 AM 48.2 °F - 41.0 °F 76% 29.84 in 10.0 mi South 12.7 mph 24.2 mph N/A   Clear
6:15 AM 48.2 °F - 41.0 °F 76% 29.84 in 10.0 mi South 15.0 mph 23.0 mph N/A   Partly Cloudy
6:35 AM 48.2 °F - 41.0 °F 76% 29.83 in 10.0 mi South 11.5 mph 21.9 mph N/A   Mostly Cloudy
6:55 AM 48.2 °F - 41.0 °F 76% 29.83 in 10.0 mi South 13.8 mph 18.4 mph N/A   Overcast
7:15 AM 48.2 °F - 41.0 °F 76% 29.82 in 10.0 mi South 15.0 mph 21.9 mph N/A   Overcast
7:35 AM 48.2 °F - 42.8 °F 82% 29.83 in 10.0 mi South 16.1 mph 25.3 mph N/A   Mostly Cloudy
7:55 AM 48.2 °F - 42.8 °F 82% 29.83 in 10.0 mi South 13.8 mph 24.2 mph N/A   Mostly Cloudy
8:15 AM 48.2 °F - 44.6 °F 87% 29.83 in 10.0 mi South 15.0 mph 25.3 mph N/A   Overcast
8:35 AM 48.2 °F - 44.6 °F 87% 29.84 in 10.0 mi South 16.1 mph 23.0 mph N/A   Overcast
8:55 AM 48.2 °F - 44.6 °F 87% 29.83 in 10.0 mi South 15.0 mph 25.3 mph N/A   Overcast
9:15 AM 48.2 °F - 46.4 °F 93% 29.84 in 10.0 mi SSW 11.5 mph 24.2 mph N/A   Overcast
9:35 AM 48.2 °F - 46.4 °F 93% 29.84 in 1.5 mi SSW 12.7 mph 24.2 mph N/A   Overcast
9:55 AM 48.2 °F - 46.4 °F 93% 29.83 in 1.5 mi South 11.5 mph 17.3 mph N/A   Overcast
10:15 AM 48.2 °F - 46.4 °F 93% 29.83 in 2.5 mi SSW 10.4 mph 19.6 mph 0.01 in   Overcast
10:35 AM 48.2 °F - 48.2 °F 100% 29.82 in 1.8 mi South 10.4 mph 18.4 mph 0.03 in   Overcast
10:55 AM 48.2 °F - 48.2 °F 100% 29.80 in 1.8 mi SSW 11.5 mph 19.6 mph 0.05 in   Overcast
11:15 AM 48.2 °F - 48.2 °F 100% 29.80 in 2.5 mi South 11.5 mph 18.4 mph 0.01 in   Mostly Cloudy
11:35 AM 48.2 °F - 48.2 °F 100% 29.78 in 7.0 mi SSW 11.5 mph 17.3 mph 0.01 in   Overcast
11:55 AM 48.2 °F - 48.2 °F 100% 29.78 in 1.8 mi SSW 11.5 mph 19.6 mph 0.03 in   Overcast
12:15 PM 48.2 °F - 48.2 °F 100% 29.77 in 1.5 mi SSW 11.5 mph 19.6 mph 0.01 in   Overcast
12:35 PM 48.2 °F - 48.2 °F 100% 29.76 in 3.0 mi SSW 11.5 mph 18.4 mph 0.01 in   Overcast
12:55 PM 48.2 °F - 48.2 °F 100% 29.75 in 4.0 mi SSW 9.2 mph - 0.02 in   Overcast
1:15 PM 48.2 °F - 48.2 °F 100% 29.75 in 2.5 mi SW 8.1 mph - N/A   Overcast
1:35 PM 48.2 °F - 48.2 °F 100% 29.75 in 1.5 mi SSW 10.4 mph - 0.02 in   Overcast
1:55 PM 48.2 °F - 48.2 °F 100% 29.75 in 2.0 mi SW 10.4 mph 16.1 mph 0.03 in   Overcast
2:15 PM 48.2 °F - 48.2 °F 100% 29.75 in 1.8 mi SW 8.1 mph - N/A   Overcast
2:35 PM 50.0 °F - 50.0 °F 100% 29.75 in 8.0 mi SW 6.9 mph - N/A   Mostly Cloudy
2:55 PM 50.0 °F - 50.0 °F 100% 29.75 in 10.0 mi SW 8.1 mph - N/A   Overcast
3:15 PM 50.0 °F - 50.0 °F 100% 29.75 in 10.0 mi SW 6.9 mph - N/A   Overcast
3:35 PM 50.0 °F - 50.0 °F 100% 29.76 in 10.0 mi SW 9.2 mph - N/A   Overcast
3:55 PM 50.0 °F - 50.0 °F 100% 29.76 in 10.0 mi WSW 8.1 mph - N/A   Overcast
4:15 PM 50.0 °F - 50.0 °F 100% 29.77 in 10.0 mi WSW 8.1 mph - N/A   Overcast
4:35 PM 50.0 °F - 50.0 °F 100% 29.77 in 10.0 mi WSW 9.2 mph - N/A   Overcast
4:55 PM 48.2 °F - 48.2 °F 100% 29.77 in 9.0 mi WSW 5.8 mph - N/A   Overcast
5:15 PM 48.2 °F - 48.2 °F 100% 29.77 in 8.0 mi SW 5.8 mph - N/A   Overcast
5:35 PM 48.2 °F - 48.2 °F 100% 29.79 in 6.0 mi SW 5.8 mph - N/A   Overcast
5:55 PM 48.2 °F - 48.2 °F 100% 29.79 in 5.0 mi WSW 5.8 mph - N/A   Overcast
6:15 PM 48.2 °F - 48.2 °F 100% 29.80 in 5.0 mi WSW 8.1 mph - N/A   Overcast
6:35 PM 48.2 °F - 48.2 °F 100% 29.81 in 3.0 mi WSW 6.9 mph - N/A   Overcast
6:55 PM 48.2 °F - 48.2 °F 100% 29.82 in 2.0 mi West 5.8 mph - N/A   Overcast
7:15 PM 48.2 °F - 48.2 °F 100% 29.83 in 1.2 mi West 5.8 mph - N/A   Overcast
7:35 PM 48.2 °F - 48.2 °F 100% 29.83 in 0.8 mi West 4.6 mph - N/A   Overcast
7:55 PM 48.2 °F - 48.2 °F 100% 29.84 in 0.2 mi West 6.9 mph - N/A   Overcast
8:15 PM 48.2 °F - 48.2 °F 100% 29.84 in 0.2 mi West 6.9 mph - N/A   Overcast
8:35 PM 48.2 °F - 48.2 °F 100% 29.84 in 0.2 mi West 5.8 mph - N/A   Overcast
8:55 PM 46.4 °F 43.5 °F 46.4 °F 100% 29.85 in 0.2 mi West 5.8 mph - N/A   Overcast
9:15 PM 46.4 °F 43.5 °F 46.4 °F 100% 29.85 in 0.2 mi West 5.8 mph - N/A   Overcast
9:35 PM 46.4 °F 43.5 °F 46.4 °F 100% 29.86 in 0.2 mi West 5.8 mph - N/A   Overcast
9:55 PM 46.4 °F 43.5 °F 46.4 °F 100% 29.86 in 0.2 mi WSW 5.8 mph - N/A   Overcast
10:15 PM 44.6 °F 42.2 °F 44.6 °F 100% 29.87 in 0.2 mi West 4.6 mph - N/A   Overcast
10:35 PM 44.6 °F 40.2 °F 44.6 °F 100% 29.88 in 0.2 mi WNW 8.1 mph - N/A   Overcast
10:55 PM 41.0 °F 36.4 °F 41.0 °F 100% 29.88 in 1.2 mi WNW 6.9 mph - N/A   Mostly Cloudy
11:15 PM 41.0 °F 36.4 °F 41.0 °F 100% 29.89 in 10.0 mi NW 6.9 mph - N/A   Clear
11:35 PM 39.2 °F 34.2 °F 39.2 °F 100% 29.89 in 10.0 mi NW 6.9 mph - N/A   Clear
11:55 PM 39.2 °F 33.6 °F 39.2 °F 100% 29.88 in 10.0 mi NW 8.1 mph - N/A   Clear